sensor_id;sensor_type;location;lat;lon;timestamp;pressure;altitude;pressure_sealevel;temperature;humidity
56944;BME280;42848;42.524;12.052;2023-01-28T00:01:48;95991.34;;;2.20;100.00
56944;BME280;42848;42.524;12.052;2023-01-28T00:04:15;95982.78;;;2.18;100.00
56944;BME280;42848;42.524;12.052;2023-01-28T00:06:41;95974.22;;;2.16;100.00
56944;BME280;42848;42.524;12.052;2023-01-28T00:09:07;95987.03;;;2.19;100.00
56944;BME280;42848;42.524;12.052;2023-01-28T00:11:33;95990.75;;;2.23;100.00
56944;BME280;42848;42.524;12.052;2023-01-28T00:13:58;95997.50;;;2.20;100.00
56944;BME280;42848;42.524;12.052;2023-01-28T00:16:25;95989.47;;;2.20;100.00
56944;BME280;42848;42.524;12.052;2023-01-28T00:18:54;95995.88;;;2.19;100.00
56944;BME280;42848;42.524;12.052;2023-01-28T00:21:20;95993.47;;;2.18;100.00
56944;BME280;42848;42.524;12.052;2023-01-28T00:23:53;95986.50;;;2.22;100.00
56944;BME280;42848;42.524;12.052;2023-01-28T00:26:20;95989.63;;;2.29;100.00
56944;BME280;42848;42.524;12.052;2023-01-28T00:28:46;95996.13;;;2.23;100.00
56944;BME280;42848;42.524;12.052;2023-01-28T00:31:21;96015.59;;;2.28;100.00
56944;BME280;42848;42.524;12.052;2023-01-28T00:33:48;96007.28;;;2.30;100.00
56944;BME280;42848;42.524;12.052;2023-01-28T00:36:14;96003.75;;;2.35;100.00
56944;BME280;42848;42.524;12.052;2023-01-28T00:38:41;96005.13;;;2.32;100.00
56944;BME280;42848;42.524;12.052;2023-01-28T00:41:13;96000.84;;;2.31;100.00
56944;BME280;42848;42.524;12.052;2023-01-28T00:43:39;96006.94;;;2.37;100.00
56944;BME280;42848;42.524;12.052;2023-01-28T00:46:06;96004.06;;;2.28;100.00
56944;BME280;42848;42.524;12.052;2023-01-28T00:48:33;96012.66;;;2.30;100.00
56944;BME280;42848;42.524;12.052;2023-01-28T00:50:59;96016.13;;;2.31;100.00
56944;BME280;42848;42.524;12.052;2023-01-28T00:53:25;96020.63;;;2.35;100.00
56944;BME280;42848;42.524;12.052;2023-01-28T00:55:51;96032.91;;;2.36;100.00
56944;BME280;42848;42.524;12.052;2023-01-28T00:58:17;96028.34;;;2.37;100.00
56944;BME280;42848;42.524;12.052;2023-01-28T01:00:43;96023.25;;;2.40;100.00
56944;BME280;42848;42.524;12.052;2023-01-28T01:03:09;96026.47;;;2.37;100.00
56944;BME280;42848;42.524;12.052;2023-01-28T01:05:34;96031.91;;;2.32;100.00
56944;BME280;42848;42.524;12.052;2023-01-28T01:08:00;96026.75;;;2.36;100.00
56944;BME280;42848;42.524;12.052;2023-01-28T01:10:26;96037.25;;;2.32;100.00
56944;BME280;42848;42.524;12.052;2023-01-28T01:12:52;96039.88;;;2.37;100.00
56944;BME280;42848;42.524;12.052;2023-01-28T01:15:18;96032.91;;;2.36;100.00
56944;BME280;42848;42.524;12.052;2023-01-28T01:17:46;96042.03;;;2.35;100.00
56944;BME280;42848;42.524;12.052;2023-01-28T01:20:16;96037.47;;;2.36;100.00
56944;BME280;42848;42.524;12.052;2023-01-28T01:22:43;96036.56;;;2.45;100.00
56944;BME280;42848;42.524;12.052;2023-01-28T01:25:09;96037.44;;;2.41;100.00
56944;BME280;42848;42.524;12.052;2023-01-28T01:27:35;96041.50;;;2.38;100.00
56944;BME280;42848;42.524;12.052;2023-01-28T01:30:01;96044.72;;;2.35;100.00
56944;BME280;42848;42.524;12.052;2023-01-28T01:32:32;96051.66;;;2.36;100.00
56944;BME280;42848;42.524;12.052;2023-01-28T01:34:59;96051.25;;;2.24;100.00
56944;BME280;42848;42.524;12.052;2023-01-28T01:37:26;96046.59;;;2.11;100.00
56944;BME280;42848;42.524;12.052;2023-01-28T01:39:51;96035.41;;;2.04;100.00
56944;BME280;42848;42.524;12.052;2023-01-28T01:42:17;96036.22;;;1.99;100.00
56944;BME280;42848;42.524;12.052;2023-01-28T01:45:05;96052.06;;;1.95;100.00
56944;BME280;42848;42.524;12.052;2023-01-28T01:47:52;96037.44;;;1.83;100.00
56944;BME280;42848;42.524;12.052;2023-01-28T01:50:35;96048.13;;;1.88;100.00
56944;BME280;42848;42.524;12.052;2023-01-28T01:53:21;96053.47;;;1.88;100.00
56944;BME280;42848;42.524;12.052;2023-01-28T01:55:52;96041.25;;;1.77;100.00
56944;BME280;42848;42.524;12.052;2023-01-28T01:58:23;96042.13;;;1.67;100.00
56944;BME280;42848;42.524;12.052;2023-01-28T02:00:52;96034.13;;;1.62;100.00
56944;BME280;42848;42.524;12.052;2023-01-28T02:03:23;96043.81;;;1.58;100.00
56944;BME280;42848;42.524;12.052;2023-01-28T02:05:53;96054.50;;;1.58;100.00
56944;BME280;42848;42.524;12.052;2023-01-28T02:08:19;96046.44;;;1.63;100.00
56944;BME280;42848;42.524;12.052;2023-01-28T02:10:54;96050.75;;;1.59;100.00
56944;BME280;42848;42.524;12.052;2023-01-28T02:13:25;96060.09;;;1.61;100.00
56944;BME280;42848;42.524;12.052;2023-01-28T02:15:54;96059.56;;;1.59;100.00
56944;BME280;42848;42.524;12.052;2023-01-28T02:18:20;96058.50;;;1.60;100.00
56944;BME280;42848;42.524;12.052;2023-01-28T02:21:14;96067.53;;;1.64;100.00
56944;BME280;42848;42.524;12.052;2023-01-28T02:24:13;96060.38;;;1.60;100.00
56944;BME280;42848;42.524;12.052;2023-01-28T02:32:20;96045.41;;;1.59;100.00
56944;BME280;42848;42.524;12.052;2023-01-28T02:40:01;96047.56;;;1.57;100.00
56944;BME280;42848;42.524;12.052;2023-01-28T02:42:34;96042.72;;;1.59;100.00
56944;BME280;42848;42.524;12.052;2023-01-28T02:45:01;96049.69;;;1.55;100.00
56944;BME280;42848;42.524;12.052;2023-01-28T02:47:27;96044.91;;;1.52;100.00
56944;BME280;42848;42.524;12.052;2023-01-28T02:50:14;96050.03;;;1.48;100.00
56944;BME280;42848;42.524;12.052;2023-01-28T02:53:20;96059.38;;;1.51;100.00
56944;BME280;42848;42.524;12.052;2023-01-28T02:56:34;96047.03;;;1.55;100.00
56944;BME280;42848;42.524;12.052;2023-01-28T02:59:10;96049.47;;;1.51;100.00
56944;BME280;42848;42.524;12.052;2023-01-28T03:02:19;96044.59;;;1.58;100.00
56944;BME280;42848;42.524;12.052;2023-01-28T03:04:52;96049.16;;;1.58;100.00
56944;BME280;42848;42.524;12.052;2023-01-28T03:07:22;96052.34;;;1.60;100.00
56944;BME280;42848;42.524;12.052;2023-01-28T03:09:51;96050.44;;;1.65;100.00
56944;BME280;42848;42.524;12.052;2023-01-28T03:12:21;96057.63;;;1.70;100.00
56944;BME280;42848;42.524;12.052;2023-01-28T03:15:11;96049.88;;;1.68;100.00
56944;BME280;42848;42.524;12.052;2023-01-28T03:18:06;96041.00;;;1.73;100.00
56944;BME280;42848;42.524;12.052;2023-01-28T03:24:08;96047.44;;;1.72;100.00
56944;BME280;42848;42.524;12.052;2023-01-28T03:27:07;96035.72;;;1.63;100.00
56944;BME280;42848;42.524;12.052;2023-01-28T03:29:57;96043.72;;;1.68;100.00
56944;BME280;42848;42.524;12.052;2023-01-28T03:32:43;96051.50;;;1.64;100.00
56944;BME280;42848;42.524;12.052;2023-01-28T03:35:31;96049.88;;;1.68;100.00
56944;BME280;42848;42.524;12.052;2023-01-28T03:38:16;96042.06;;;1.72;100.00
56944;BME280;42848;42.524;12.052;2023-01-28T03:40:58;96059.47;;;1.75;100.00
56944;BME280;42848;42.524;12.052;2023-01-28T03:43:28;96039.97;;;1.69;100.00
56944;BME280;42848;42.524;12.052;2023-01-28T03:45:54;96034.09;;;1.67;100.00
56944;BME280;42848;42.524;12.052;2023-01-28T03:48:25;96047.72;;;1.70;100.00
56944;BME280;42848;42.524;12.052;2023-01-28T03:50:53;96035.41;;;1.69;100.00
56944;BME280;42848;42.524;12.052;2023-01-28T03:53:21;96040.78;;;1.69;100.00
56944;BME280;42848;42.524;12.052;2023-01-28T03:55:49;96039.50;;;1.62;100.00
56944;BME280;42848;42.524;12.052;2023-01-28T03:58:16;96049.09;;;1.68;100.00
56944;BME280;42848;42.524;12.052;2023-01-28T04:00:43;96042.94;;;1.67;100.00
56944;BME280;42848;42.524;12.052;2023-01-28T04:03:10;96033.59;;;1.65;100.00
56944;BME280;42848;42.524;12.052;2023-01-28T04:05:57;96043.72;;;1.68;100.00
56944;BME280;42848;42.524;12.052;2023-01-28T04:08:23;96058.97;;;1.67;100.00
56944;BME280;42848;42.524;12.052;2023-01-28T04:10:49;96049.66;;;1.65;100.00
56944;BME280;42848;42.524;12.052;2023-01-28T04:13:15;96047.22;;;1.63;100.00
56944;BME280;42848;42.524;12.052;2023-01-28T04:15:42;96052.31;;;1.65;100.00
56944;BME280;42848;42.524;12.052;2023-01-28T04:18:10;96048.81;;;1.64;100.00
56944;BME280;42848;42.524;12.052;2023-01-28T04:20:36;96049.31;;;1.71;100.00
56944;BME280;42848;42.524;12.052;2023-01-28T04:23:03;96055.44;;;1.72;100.00
56944;BME280;42848;42.524;12.052;2023-01-28T04:25:30;96058.69;;;1.74;100.00
56944;BME280;42848;42.524;12.052;2023-01-28T04:27:56;96056.50;;;1.76;100.00
56944;BME280;42848;42.524;12.052;2023-01-28T04:30:22;96069.13;;;1.70;100.00
56944;BME280;42848;42.524;12.052;2023-01-28T04:32:48;96061.84;;;1.76;100.00
56944;BME280;42848;42.524;12.052;2023-01-28T04:35:17;96057.84;;;1.74;100.00
56944;BME280;42848;42.524;12.052;2023-01-28T04:37:42;96054.91;;;1.75;100.00
56944;BME280;42848;42.524;12.052;2023-01-28T04:40:09;96063.47;;;1.77;100.00
56944;BME280;42848;42.524;12.052;2023-01-28T04:42:35;96071.44;;;1.82;100.00
56944;BME280;42848;42.524;12.052;2023-01-28T04:45:01;96062.88;;;1.80;100.00
56944;BME280;42848;42.524;12.052;2023-01-28T04:47:27;96064.53;;;1.76;100.00
56944;BME280;42848;42.524;12.052;2023-01-28T04:49:52;96067.16;;;1.81;100.00
56944;BME280;42848;42.524;12.052;2023-01-28T04:52:18;96065.53;;;1.85;100.00
56944;BME280;42848;42.524;12.052;2023-01-28T04:54:44;96061.28;;;1.79;100.00
56944;BME280;42848;42.524;12.052;2023-01-28T04:57:10;96068.81;;;1.77;100.00
56944;BME280;42848;42.524;12.052;2023-01-28T04:59:35;96067.22;;;1.76;100.00
56944;BME280;42848;42.524;12.052;2023-01-28T05:02:01;96070.91;;;1.80;100.00
56944;BME280;42848;42.524;12.052;2023-01-28T05:04:27;96066.66;;;1.79;100.00
56944;BME280;42848;42.524;12.052;2023-01-28T05:06:52;96083.22;;;1.81;100.00
56944;BME280;42848;42.524;12.052;2023-01-28T05:09:18;96076.78;;;1.82;100.00
56944;BME280;42848;42.524;12.052;2023-01-28T05:11:44;96075.75;;;1.78;100.00
56944;BME280;42848;42.524;12.052;2023-01-28T05:14:09;96081.06;;;1.83;100.00
56944;BME280;42848;42.524;12.052;2023-01-28T05:16:35;96088.47;;;1.91;100.00
56944;BME280;42848;42.524;12.052;2023-01-28T05:19:01;96090.13;;;1.87;100.00
56944;BME280;42848;42.524;12.052;2023-01-28T05:21:27;96091.16;;;1.91;100.00
56944;BME280;42848;42.524;12.052;2023-01-28T05:23:53;96094.91;;;1.90;100.00
56944;BME280;42848;42.524;12.052;2023-01-28T05:26:19;96100.25;;;1.90;100.00
56944;BME280;42848;42.524;12.052;2023-01-28T05:28:44;96099.47;;;1.90;100.00
56944;BME280;42848;42.524;12.052;2023-01-28T05:31:10;96100.25;;;1.90;100.00
56944;BME280;42848;42.524;12.052;2023-01-28T05:33:36;96097.59;;;1.90;100.00
56944;BME280;42848;42.524;12.052;2023-01-28T05:36:02;96095.19;;;1.94;100.00
56944;BME280;42848;42.524;12.052;2023-01-28T05:38:28;96114.19;;;1.92;100.00
56944;BME280;42848;42.524;12.052;2023-01-28T05:40:54;96120.53;;;2.02;100.00
56944;BME280;42848;42.524;12.052;2023-01-28T05:43:20;96102.44;;;1.88;100.00
56944;BME280;42848;42.524;12.052;2023-01-28T05:45:46;96110.44;;;1.93;100.00
56944;BME280;42848;42.524;12.052;2023-01-28T05:48:12;96121.69;;;1.90;100.00
56944;BME280;42848;42.524;12.052;2023-01-28T05:50:37;96107.22;;;1.91;100.00
56944;BME280;42848;42.524;12.052;2023-01-28T05:53:06;96104.03;;;1.89;100.00
56944;BME280;42848;42.524;12.052;2023-01-28T05:55:31;96114.19;;;1.92;100.00
56944;BME280;42848;42.524;12.052;2023-01-28T05:57:57;96122.72;;;1.94;100.00
56944;BME280;42848;42.524;12.052;2023-01-28T06:00:23;96121.69;;;1.90;100.00
56944;BME280;42848;42.524;12.052;2023-01-28T06:02:50;96122.22;;;1.92;100.00
56944;BME280;42848;42.524;12.052;2023-01-28T06:05:17;96135.13;;;1.85;100.00
56944;BME280;42848;42.524;12.052;2023-01-28T06:07:46;96137.66;;;2.00;100.00
56944;BME280;42848;42.524;12.052;2023-01-28T06:10:13;96143.09;;;1.90;100.00
56944;BME280;42848;42.524;12.052;2023-01-28T06:12:39;96156.19;;;1.92;100.00
56944;BME280;42848;42.524;12.052;2023-01-28T06:15:05;96155.38;;;1.96;100.00
56944;BME280;42848;42.524;12.052;2023-01-28T06:17:31;96149.50;;;1.94;100.00
56944;BME280;42848;42.524;12.052;2023-01-28T06:19:57;96157.53;;;1.94;100.00
56944;BME280;42848;42.524;12.052;2023-01-28T06:22:22;96154.28;;;1.97;100.00
56944;BME280;42848;42.524;12.052;2023-01-28T06:24:48;96155.09;;;1.98;100.00
56944;BME280;42848;42.524;12.052;2023-01-28T06:27:13;96163.41;;;1.96;100.00
56944;BME280;42848;42.524;12.052;2023-01-28T06:29:39;96164.22;;;1.92;100.00
56944;BME280;42848;42.524;12.052;2023-01-28T06:32:05;96171.66;;;2.00;100.00
56944;BME280;42848;42.524;12.052;2023-01-28T06:34:30;96176.50;;;1.98;100.00
56944;BME280;42848;42.524;12.052;2023-01-28T06:36:56;96175.69;;;2.03;100.00
56944;BME280;42848;42.524;12.052;2023-01-28T06:39:22;96178.88;;;1.99;100.00
56944;BME280;42848;42.524;12.052;2023-01-28T06:41:49;96179.44;;;1.96;100.00
56944;BME280;42848;42.524;12.052;2023-01-28T06:44:15;96190.66;;;2.04;100.00
56944;BME280;42848;42.524;12.052;2023-01-28T06:46:41;96193.34;;;1.98;100.00
56944;BME280;42848;42.524;12.052;2023-01-28T06:49:07;96183.44;;;1.99;100.00
56944;BME280;42848;42.524;12.052;2023-01-28T06:51:33;96191.19;;;2.00;100.00
56944;BME280;42848;42.524;12.052;2023-01-28T06:53:58;96197.63;;;1.99;100.00
56944;BME280;42848;42.524;12.052;2023-01-28T06:56:24;96197.09;;;2.03;100.00
56944;BME280;42848;42.524;12.052;2023-01-28T06:58:50;96199.47;;;2.04;100.00
56944;BME280;42848;42.524;12.052;2023-01-28T07:01:15;96212.06;;;2.04;100.00
56944;BME280;42848;42.524;12.052;2023-01-28T07:03:41;96212.06;;;2.04;100.00
56944;BME280;42848;42.524;12.052;2023-01-28T07:06:07;96206.72;;;2.04;100.00
56944;BME280;42848;42.524;12.052;2023-01-28T07:08:33;96212.06;;;2.04;100.00
56944;BME280;42848;42.524;12.052;2023-01-28T07:10:59;96206.16;;;2.07;100.00
56944;BME280;42848;42.524;12.052;2023-01-28T07:13:25;96219.53;;;2.07;100.00
56944;BME280;42848;42.524;12.052;2023-01-28T07:15:50;96223.00;;;2.07;100.00
56944;BME280;42848;42.524;12.052;2023-01-28T07:18:16;96220.59;;;2.11;100.00
56944;BME280;42848;42.524;12.052;2023-01-28T07:20:42;96225.38;;;2.14;100.00
56944;BME280;42848;42.524;12.052;2023-01-28T07:23:07;96224.59;;;2.13;100.00
56944;BME280;42848;42.524;12.052;2023-01-28T07:25:33;96234.44;;;2.18;100.00
56944;BME280;42848;42.524;12.052;2023-01-28T07:27:58;96237.09;;;2.23;100.00
56944;BME280;42848;42.524;12.052;2023-01-28T07:30:24;96229.06;;;2.23;100.00
56944;BME280;42848;42.524;12.052;2023-01-28T07:32:59;96229.03;;;2.28;100.00
56944;BME280;42848;42.524;12.052;2023-01-28T07:35:25;96228.22;;;2.27;100.00
56944;BME280;42848;42.524;12.052;2023-01-28T07:37:55;96224.94;;;2.36;100.00
56944;BME280;42848;42.524;12.052;2023-01-28T07:40:23;96235.94;;;2.39;100.00
56944;BME280;42848;42.524;12.052;2023-01-28T07:42:49;96237.00;;;2.38;100.00
56944;BME280;42848;42.524;12.052;2023-01-28T07:45:15;96239.41;;;2.35;100.00
56944;BME280;42848;42.524;12.052;2023-01-28T07:47:41;96253.59;;;2.40;100.00
56944;BME280;42848;42.524;12.052;2023-01-28T07:50:08;96254.63;;;2.44;100.00
56944;BME280;42848;42.524;12.052;2023-01-28T07:52:35;96264.53;;;2.44;100.00
56944;BME280;42848;42.524;12.052;2023-01-28T07:55:10;96259.44;;;2.47;100.00
56944;BME280;42848;42.524;12.052;2023-01-28T07:57:36;96264.25;;;2.45;100.00
56944;BME280;42848;42.524;12.052;2023-01-28T08:00:03;96269.03;;;2.53;100.00
56944;BME280;42848;42.524;12.052;2023-01-28T08:02:28;96268.50;;;2.51;100.00
56944;BME280;42848;42.524;12.052;2023-01-28T08:04:54;96271.75;;;2.48;100.00
56944;BME280;42848;42.524;12.052;2023-01-28T08:07:23;96275.47;;;2.52;100.00
56944;BME280;42848;42.524;12.052;2023-01-28T08:09:50;96274.09;;;2.55;100.00
56944;BME280;42848;42.524;12.052;2023-01-28T08:12:17;96281.75;;;2.72;100.00
56944;BME280;42848;42.524;12.052;2023-01-28T08:14:43;96283.94;;;2.65;100.00
56944;BME280;42848;42.524;12.052;2023-01-28T08:17:08;96283.41;;;2.63;100.00
56944;BME280;42848;42.524;12.052;2023-01-28T08:19:34;96289.84;;;2.67;100.00
56944;BME280;42848;42.524;12.052;2023-01-28T08:21:59;96291.44;;;2.68;100.00
56944;BME280;42848;42.524;12.052;2023-01-28T08:24:25;96289.25;;;2.70;100.00
56944;BME280;42848;42.524;12.052;2023-01-28T08:26:50;96294.03;;;2.78;100.00
56944;BME280;42848;42.524;12.052;2023-01-28T08:29:16;96297.59;;;2.68;100.00
56944;BME280;42848;42.524;12.052;2023-01-28T08:31:41;96297.31;;;2.70;100.00
56944;BME280;42848;42.524;12.052;2023-01-28T08:34:07;96297.00;;;2.76;100.00
56944;BME280;42848;42.524;12.052;2023-01-28T08:36:33;96305.84;;;2.77;100.00
56944;BME280;42848;42.524;12.052;2023-01-28T08:38:58;96314.41;;;2.74;100.00
56944;BME280;42848;42.524;12.052;2023-01-28T08:41:24;96307.72;;;2.76;100.00
56944;BME280;42848;42.524;12.052;2023-01-28T08:43:49;96305.25;;;2.80;100.00
56944;BME280;42848;42.524;12.052;2023-01-28T08:46:15;96310.63;;;2.80;100.00
56944;BME280;42848;42.524;12.052;2023-01-28T08:48:41;96299.38;;;2.78;100.00
56944;BME280;42848;42.524;12.052;2023-01-28T08:51:07;96318.06;;;2.88;100.00
56944;BME280;42848;42.524;12.052;2023-01-28T08:53:33;96314.81;;;2.91;100.00
56944;BME280;42848;42.524;12.052;2023-01-28T08:55:58;96314.88;;;2.86;100.00
56944;BME280;42848;42.524;12.052;2023-01-28T08:58:24;96320.47;;;2.90;100.00
56944;BME280;42848;42.524;12.052;2023-01-28T09:00:50;96310.25;;;2.92;100.00
56944;BME280;42848;42.524;12.052;2023-01-28T09:03:16;96333.50;;;3.01;100.00
56944;BME280;42848;42.524;12.052;2023-01-28T09:05:43;96319.56;;;3.04;100.00
56944;BME280;42848;42.524;12.052;2023-01-28T09:08:13;96328.63;;;3.08;100.00
56944;BME280;42848;42.524;12.052;2023-01-28T09:10:39;96331.28;;;3.13;100.00
56944;BME280;42848;42.524;12.052;2023-01-28T09:13:11;96341.22;;;3.37;100.00
56944;BME280;42848;42.524;12.052;2023-01-28T09:15:37;96336.53;;;3.24;100.00
56944;BME280;42848;42.524;12.052;2023-01-28T09:18:04;96329.59;;;3.18;100.00
56944;BME280;42848;42.524;12.052;2023-01-28T09:20:30;96344.41;;;3.10;100.00
56944;BME280;42848;42.524;12.052;2023-01-28T09:22:58;96339.53;;;3.17;100.00
56944;BME280;42848;42.524;12.052;2023-01-28T09:25:24;96347.88;;;3.16;100.00
56944;BME280;42848;42.524;12.052;2023-01-28T09:27:49;96352.16;;;3.17;100.00
56944;BME280;42848;42.524;12.052;2023-01-28T09:30:15;96356.94;;;3.20;100.00
56944;BME280;42848;42.524;12.052;2023-01-28T09:32:41;96346.47;;;3.23;100.00
56944;BME280;42848;42.524;12.052;2023-01-28T09:35:07;96345.19;;;3.16;100.00
56944;BME280;42848;42.524;12.052;2023-01-28T09:37:32;96348.91;;;3.20;100.00
56944;BME280;42848;42.524;12.052;2023-01-28T09:39:58;96353.66;;;3.28;100.00
56944;BME280;42848;42.524;12.052;2023-01-28T09:47:34;96343.13;;;3.36;100.00
56944;BME280;42848;42.524;12.052;2023-01-28T09:50:07;96345.25;;;3.39;100.00
56944;BME280;42848;42.524;12.052;2023-01-28T09:52:36;96349.25;;;3.42;100.00
56944;BME280;42848;42.524;12.052;2023-01-28T09:55:16;96363.13;;;3.49;100.00
56944;BME280;42848;42.524;12.052;2023-01-28T09:57:53;96360.34;;;3.59;100.00
56944;BME280;42848;42.524;12.052;2023-01-28T10:03:35;96356.88;;;3.59;100.00
56944;BME280;42848;42.524;12.052;2023-01-28T10:06:09;96364.66;;;3.55;100.00
56944;BME280;42848;42.524;12.052;2023-01-28T10:16:40;96370.41;;;3.72;100.00
56944;BME280;42848;42.524;12.052;2023-01-28T10:21:42;96363.41;;;3.77;100.00
56944;BME280;42848;42.524;12.052;2023-01-28T10:24:17;96357.16;;;3.81;100.00
56944;BME280;42848;42.524;12.052;2023-01-28T10:26:44;96372.84;;;3.93;100.00
56944;BME280;42848;42.524;12.052;2023-01-28T10:29:17;96355.69;;;3.94;100.00
56944;BME280;42848;42.524;12.052;2023-01-28T10:32:48;96366.19;;;3.90;100.00
56944;BME280;42848;42.524;12.052;2023-01-28T10:34:55;96368.56;;;3.92;100.00
56944;BME280;42848;42.524;12.052;2023-01-28T10:37:24;96360.25;;;3.93;100.00
56944;BME280;42848;42.524;12.052;2023-01-28T10:39:56;96357.72;;;4.02;100.00
56944;BME280;42848;42.524;12.052;2023-01-28T10:42:27;96356.91;;;4.02;100.00
56944;BME280;42848;42.524;12.052;2023-01-28T10:44:56;96360.34;;;4.07;100.00
56944;BME280;42848;42.524;12.052;2023-01-28T10:47:31;96352.16;;;4.17;100.00
56944;BME280;42848;42.524;12.052;2023-01-28T10:50:00;96345.19;;;4.16;100.00
56944;BME280;42848;42.524;12.052;2023-01-28T10:52:27;96359.22;;;4.13;100.00
56944;BME280;42848;42.524;12.052;2023-01-28T10:55:04;96348.91;;;4.20;100.00
56944;BME280;42848;42.524;12.052;2023-01-28T10:57:33;96348.34;;;4.23;100.00
56944;BME280;42848;42.524;12.052;2023-01-28T11:00:11;96342.84;;;4.34;100.00
56944;BME280;42848;42.524;12.052;2023-01-28T11:02:38;96345.00;;;4.32;100.00
56944;BME280;42848;42.524;12.052;2023-01-28T11:05:16;96350.53;;;4.21;100.00
56944;BME280;42848;42.524;12.052;2023-01-28T11:07:43;96349.44;;;4.22;100.00
56944;BME280;42848;42.524;12.052;2023-01-28T11:13:00;96355.91;;;4.21;100.00
56944;BME280;42848;42.524;12.052;2023-01-28T11:15:27;96350.72;;;4.25;100.00
56944;BME280;42848;42.524;12.052;2023-01-28T11:17:57;96351.53;;;4.25;100.00
56944;BME280;42848;42.524;12.052;2023-01-28T11:20:25;96361.34;;;4.35;100.00
56944;BME280;42848;42.524;12.052;2023-01-28T11:22:52;96353.50;;;4.39;100.00
56944;BME280;42848;42.524;12.052;2023-01-28T11:25:35;96359.91;;;4.43;100.00
56944;BME280;42848;42.524;12.052;2023-01-28T11:28:04;96355.84;;;4.45;100.00
56944;BME280;42848;42.524;12.052;2023-01-28T11:30:36;96350.91;;;4.52;100.00
56944;BME280;42848;42.524;12.052;2023-01-28T11:35:30;96349.75;;;4.59;100.00
56944;BME280;42848;42.524;12.052;2023-01-28T11:37:59;96343.84;;;4.56;100.00
56944;BME280;42848;42.524;12.052;2023-01-28T11:40:26;96351.13;;;4.56;100.00
56944;BME280;42848;42.524;12.052;2023-01-28T11:42:53;96344.59;;;4.62;100.00
56944;BME280;42848;42.524;12.052;2023-01-28T11:51:38;96335.66;;;4.67;100.00
56944;BME280;42848;42.524;12.052;2023-01-28T11:59:29;96341.53;;;4.88;100.00
56944;BME280;42848;42.524;12.052;2023-01-28T12:07:44;96329.50;;;4.99;100.00
56944;BME280;42848;42.524;12.052;2023-01-28T12:10:36;96331.59;;;5.02;100.00
56944;BME280;42848;42.524;12.052;2023-01-28T12:21:07;96334.81;;;5.04;100.00
56944;BME280;42848;42.524;12.052;2023-01-28T12:26:48;96329.34;;;5.09;100.00
56944;BME280;42848;42.524;12.052;2023-01-28T12:38:19;96334.81;;;5.04;100.00
56944;BME280;42848;42.524;12.052;2023-01-28T12:44:03;96338.44;;;5.13;100.00
56944;BME280;42848;42.524;12.052;2023-01-28T12:51:59;96333.94;;;5.08;100.00
56944;BME280;42848;42.524;12.052;2023-01-28T12:54:39;96332.63;;;5.06;100.00
56944;BME280;42848;42.524;12.052;2023-01-28T12:57:13;96331.44;;;5.12;100.00
56944;BME280;42848;42.524;12.052;2023-01-28T13:02:28;96317.66;;;5.00;100.00
56944;BME280;42848;42.524;12.052;2023-01-28T13:05:05;96316.50;;;5.06;100.00
56944;BME280;42848;42.524;12.052;2023-01-28T13:10:50;96315.69;;;5.05;100.00
56944;BME280;42848;42.524;12.052;2023-01-28T13:13:17;96316.69;;;5.09;100.00
56944;BME280;42848;42.524;12.052;2023-01-28T13:15:45;96326.88;;;5.12;100.00
56944;BME280;42848;42.524;12.052;2023-01-28T13:20:54;96317.00;;;5.08;100.00
56944;BME280;42848;42.524;12.052;2023-01-28T13:25:49;96323.28;;;5.17;100.00
56944;BME280;42848;42.524;12.052;2023-01-28T13:28:31;96324.03;;;5.23;100.00
56944;BME280;42848;42.524;12.052;2023-01-28T13:31:18;96334.06;;;5.17;100.00
56944;BME280;42848;42.524;12.052;2023-01-28T13:34:01;96321.53;;;5.26;100.00
56944;BME280;42848;42.524;12.052;2023-01-28T13:36:33;96325.34;;;5.39;100.00
56944;BME280;42848;42.524;12.052;2023-01-28T13:41:38;96331.41;;;5.31;100.00
56944;BME280;42848;42.524;12.052;2023-01-28T13:44:20;96339.06;;;5.24;100.00
56944;BME280;42848;42.524;12.052;2023-01-28T13:46:46;96328.50;;;5.27;100.00
56944;BME280;42848;42.524;12.052;2023-01-28T13:49:17;96324.72;;;5.28;100.00
56944;BME280;42848;42.524;12.052;2023-01-28T13:52:03;96338.78;;;5.25;100.00
56944;BME280;42848;42.524;12.052;2023-01-28T13:54:34;96335.88;;;5.22;100.00
56944;BME280;42848;42.524;12.052;2023-01-28T14:11:25;96337.41;;;5.41;100.00
56944;BME280;42848;42.524;12.052;2023-01-28T14:14:05;96339.69;;;5.34;100.00
56944;BME280;42848;42.524;12.052;2023-01-28T14:19:18;96357.84;;;5.42;100.00
56944;BME280;42848;42.524;12.052;2023-01-28T14:21:45;96350.56;;;5.43;100.00
56944;BME280;42848;42.524;12.052;2023-01-28T14:24:15;96357.84;;;5.42;100.00
56944;BME280;42848;42.524;12.052;2023-01-28T14:27:02;96371.00;;;5.44;100.00
56944;BME280;42848;42.524;12.052;2023-01-28T14:32:16;96363.31;;;5.37;100.00
56944;BME280;42848;42.524;12.052;2023-01-28T14:34:44;96372.00;;;5.34;100.00
56944;BME280;42848;42.524;12.052;2023-01-28T14:37:30;96369.22;;;5.39;100.00
56944;BME280;42848;42.524;12.052;2023-01-28T14:40:01;96371.00;;;5.30;100.00
56944;BME280;42848;42.524;12.052;2023-01-28T14:43:00;96365.00;;;5.33;100.00
56944;BME280;42848;42.524;12.052;2023-01-28T14:45:44;96372.59;;;5.31;100.00
56944;BME280;42848;42.524;12.052;2023-01-28T14:59:43;96380.13;;;5.29;100.00
56944;BME280;42848;42.524;12.052;2023-01-28T15:02:31;96367.94;;;5.18;100.00
56944;BME280;42848;42.524;12.052;2023-01-28T15:05:14;96379.00;;;5.17;100.00
56944;BME280;42848;42.524;12.052;2023-01-28T15:07:43;96380.09;;;5.16;100.00
56944;BME280;42848;42.524;12.052;2023-01-28T15:10:17;96376.50;;;5.20;100.00
56944;BME280;42848;42.524;12.052;2023-01-28T15:12:51;96387.88;;;5.17;100.00
56944;BME280;42848;42.524;12.052;2023-01-28T15:15:30;96384.09;;;5.18;100.00